Time;durP1;ratioP1;P1;durP2;ratioP2;P2;SDS_P1;SDS_P2;PMS_P1;PMS_P2;Temp;Humidity;BMP_temperature;BMP_pressure;BME280_temperature;BME280_humidity;BME280_pressure;Samples;Min_cycle;Max_cycle;Signal;HPM_P1;HPM_P2
2022/04/25 00:00:07;;;;;;;;;;;;;;;6.97;100.00;94803.56;1021348;28;20351;-70
2022/04/25 00:00:37;;;;;;;;;;;;;;;6.97;100.00;94804.34;1024263;28;19920;-72
2022/04/25 00:01:08;;;;;;;;;;;;;;;6.97;100.00;94804.34;1018734;28;19919;-70
2022/04/25 00:01:39;;;;;;;;;;;;;;;6.97;100.00;94804.34;1027029;28;20542;-71
2022/04/25 00:02:10;;;;;;;;;;;;;;;6.98;100.00;94802.53;1026576;28;19924;-70
2022/04/25 00:02:40;;;;;;;;;;;;;;;6.98;100.00;94795.50;1028972;28;19922;-70
2022/04/25 00:03:11;;;;;;;;;;;;;;;6.97;100.00;94803.56;1034088;28;20294;-70
2022/04/25 00:03:41;;;;;;;;;;;;;;;6.97;100.00;94799.13;1029086;28;19941;-71
2022/04/25 00:04:11;;;;;;;;;;;;;;;6.97;100.00;94800.97;1022513;28;20459;-71
2022/04/25 00:04:42;;;;;;;;;;;;;;;6.98;100.00;94799.94;1019988;29;19934;-71
2022/04/25 00:05:12;;;;;;;;;;;;;;;6.98;100.00;94798.09;1018128;29;20369;-70
2022/04/25 00:05:42;;;;;;;;;;;;;;;7.00;100.00;94808.25;1022659;29;19911;-71
2022/04/25 00:06:13;;;;;;;;;;;;;;;6.98;100.00;94798.09;1022498;28;19919;-70
2022/04/25 00:06:43;;;;;;;;;;;;;;;6.97;100.00;94795.75;1021957;28;19914;-70
2022/04/25 00:07:13;;;;;;;;;;;;;;;6.99;100.00;94797.06;1026185;28;19924;-71
2022/04/25 00:07:44;;;;;;;;;;;;;;;6.98;100.00;94794.72;1018539;29;19919;-71
2022/04/25 00:08:14;;;;;;;;;;;;;;;6.95;100.00;94796.03;1022280;29;20008;-71
2022/04/25 00:08:44;;;;;;;;;;;;;;;6.98;100.00;94799.94;1026644;28;19973;-71
2022/04/25 00:09:14;;;;;;;;;;;;;;;6.96;100.00;94802.00;1026225;28;20631;-70
2022/04/25 00:09:45;;;;;;;;;;;;;;;6.98;100.00;94794.72;1022627;29;19953;-71
2022/04/25 00:10:15;;;;;;;;;;;;;;;6.98;100.00;94794.72;1018140;29;19919;-71
2022/04/25 00:10:46;;;;;;;;;;;;;;;6.97;100.00;94793.13;1022519;29;19929;-70
2022/04/25 00:11:16;;;;;;;;;;;;;;;6.97;100.00;94798.34;1022661;28;20294;-71
2022/04/25 00:11:46;;;;;;;;;;;;;;;6.96;100.00;94792.34;1026107;28;20004;-70
2022/04/25 00:12:17;;;;;;;;;;;;;;;6.98;100.00;94786.91;1022446;28;19925;-71
2022/04/25 00:12:47;;;;;;;;;;;;;;;6.97;100.00;94791.31;1018601;29;19919;-70
2022/04/25 00:13:17;;;;;;;;;;;;;;;6.97;100.00;94793.91;1022510;29;19925;-71
2022/04/25 00:13:48;;;;;;;;;;;;;;;6.96;100.00;94794.97;1020877;28;19921;-68
2022/04/25 00:14:18;;;;;;;;;;;;;;;6.96;100.00;94791.59;1026045;28;20115;-71
2022/04/25 00:14:49;;;;;;;;;;;;;;;6.97;100.00;94788.69;1030423;28;20363;-71
2022/04/25 00:15:20;;;;;;;;;;;;;;;6.99;100.00;94793.66;1030611;28;20439;-71
2022/04/25 00:15:52;;;;;;;;;;;;;;;6.97;100.00;94799.13;1034118;28;20174;-70
2022/04/25 00:16:23;;;;;;;;;;;;;;;6.98;100.00;94790.28;1034226;28;19924;-71
2022/04/25 00:16:56;;;;;;;;;;;;;;;6.98;100.00;94794.72;1029619;28;19968;-70
2022/04/25 00:17:26;;;;;;;;;;;;;;;6.98;100.00;94789.50;1026238;28;19937;-71
2022/04/25 00:17:57;;;;;;;;;;;;;;;6.98;100.00;94794.72;1026538;28;20380;-71
2022/04/25 00:18:27;;;;;;;;;;;;;;;6.96;100.00;94799.41;1026744;28;19920;-71
2022/04/25 00:18:58;;;;;;;;;;;;;;;6.95;100.00;94788.19;1026348;28;19914;-71
2022/04/25 00:19:28;;;;;;;;;;;;;;;6.96;100.00;94791.59;1026547;28;19926;-71
2022/04/25 00:19:58;;;;;;;;;;;;;;;6.98;100.00;94794.72;1022278;29;20459;-71
2022/04/25 00:20:29;;;;;;;;;;;;;;;6.99;100.00;94796.28;1026271;28;20028;-70
2022/04/25 00:21:00;;;;;;;;;;;;;;;7.00;100.00;94796.00;1026556;28;19918;-71
2022/04/25 00:21:30;;;;;;;;;;;;;;;6.98;100.00;94794.72;1022357;29;20319;-70
2022/04/25 00:22:01;;;;;;;;;;;;;;;6.98;100.00;94790.28;1022623;29;19919;-71
2022/04/25 00:22:31;;;;;;;;;;;;;;;6.99;100.00;94796.28;1018585;29;19918;-70
2022/04/25 00:23:05;;;;;;;;;;;;;;;6.98;100.00;94794.72;1022614;29;20699;-71
2022/04/25 00:23:35;;;;;;;;;;;;;;;6.99;100.00;94796.28;1015779;29;19923;-72
2022/04/25 00:24:06;;;;;;;;;;;;;;;6.99;100.00;94796.28;1022736;28;20246;-71
2022/04/25 00:24:37;;;;;;;;;;;;;;;6.98;100.00;94792.88;1022443;29;20390;-71
2022/04/25 00:25:07;;;;;;;;;;;;;;;6.99;100.00;94791.06;1022662;28;20190;-70
2022/04/25 00:25:37;;;;;;;;;;;;;;;6.99;100.00;94791.84;1026417;28;19944;-71
2022/04/25 00:26:09;;;;;;;;;;;;;;;7.01;100.00;94788.97;1022319;28;19919;-70
2022/04/25 00:26:39;;;;;;;;;;;;;;;7.03;100.00;94799.91;1026269;28;19919;-71
2022/04/25 00:27:11;;;;;;;;;;;;;;;7.03;100.00;94786.88;1018171;29;20482;-70
2022/04/25 00:27:41;;;;;;;;;;;;;;;7.00;100.00;94792.63;1014870;29;20052;-71
2022/04/25 00:28:11;;;;;;;;;;;;;;;7.02;100.00;94795.75;1018438;29;20439;-71
2022/04/25 00:28:42;;;;;;;;;;;;;;;7.02;100.00;94796.53;1018858;28;19915;-71
2022/04/25 00:29:12;;;;;;;;;;;;;;;7.02;100.00;94793.91;1026366;28;19918;-70
2022/04/25 00:29:42;;;;;;;;;;;;;;;7.00;100.00;94792.63;1026480;28;19918;-71
2022/04/25 00:30:12;;;;;;;;;;;;;;;7.00;100.00;94787.41;1022453;28;19914;-70
2022/04/25 00:30:43;;;;;;;;;;;;;;;7.02;100.00;94791.31;1026390;28;19948;-70
2022/04/25 00:31:13;;;;;;;;;;;;;;;7.02;100.00;94793.16;1026073;28;19984;-71
2022/04/25 00:31:44;;;;;;;;;;;;;;;7.02;100.00;94795.75;1026678;28;20005;-71
2022/04/25 00:32:14;;;;;;;;;;;;;;;7.01;100.00;94796.81;1022137;28;20395;-71
2022/04/25 00:32:44;;;;;;;;;;;;;;;7.00;100.00;94797.84;1023992;28;19918;-71
2022/04/25 00:33:15;;;;;;;;;;;;;;;6.99;100.00;94793.66;1022441;28;19922;-71
2022/04/25 00:33:45;;;;;;;;;;;;;;;7.00;100.00;94795.22;1022403;28;20050;-72
2022/04/25 00:34:15;;;;;;;;;;;;;;;7.00;100.00;94800.44;1025889;28;19941;-71
2022/04/25 00:34:45;;;;;;;;;;;;;;;7.00;100.00;94803.03;1028216;28;19918;-71
2022/04/25 00:35:16;;;;;;;;;;;;;;;7.01;100.00;94800.19;1026286;28;19910;-72
2022/04/25 00:35:46;;;;;;;;;;;;;;;7.02;100.00;94795.75;1022550;29;19919;-70
2022/04/25 00:36:17;;;;;;;;;;;;;;;7.01;100.00;94799.41;1022243;28;20422;-71
2022/04/25 00:36:47;;;;;;;;;;;;;;;7.01;100.00;94796.81;1021843;28;20197;-70
2022/04/25 00:37:18;;;;;;;;;;;;;;;6.99;100.00;94802.28;1022427;28;20474;-70
2022/04/25 00:37:48;;;;;;;;;;;;;;;7.01;100.00;94810.63;1026254;28;19910;-70
2022/04/25 00:38:19;;;;;;;;;;;;;;;7.00;100.00;94803.81;1022584;29;19914;-72
2022/04/25 00:38:49;;;;;;;;;;;;;;;6.99;100.00;94804.09;1020833;29;19915;-70
2022/04/25 00:39:19;;;;;;;;;;;;;;;7.00;100.00;94798.59;1022490;28;20186;-71
2022/04/25 00:39:52;;;;;;;;;;;;;;;7.01;100.00;94800.19;1022844;28;19918;-71
2022/04/25 00:40:25;;;;;;;;;;;;;;;7.02;100.00;94796.53;1024548;28;20331;-71
2022/04/25 00:40:56;;;;;;;;;;;;;;;7.02;100.00;94800.97;1033264;28;19976;-71
2022/04/25 00:41:29;;;;;;;;;;;;;;;7.04;100.00;94798.88;1031171;28;20027;-72
2022/04/25 00:41:59;;;;;;;;;;;;;;;7.02;100.00;94800.97;1034130;28;20299;-71
2022/04/25 00:42:29;;;;;;;;;;;;;;;7.02;100.00;94798.38;1030449;28;19949;-71
2022/04/25 00:43:00;;;;;;;;;;;;;;;7.01;100.00;94799.41;1026116;28;19925;-71
2022/04/25 00:43:30;;;;;;;;;;;;;;;7.02;100.00;94799.13;1022384;29;19918;-71
2022/04/25 00:44:03;;;;;;;;;;;;;;;7.02;100.00;94793.16;1022929;28;20359;-70
2022/04/25 00:44:33;;;;;;;;;;;;;;;7.03;100.00;94803.31;1022522;28;20025;-71
2022/04/25 00:45:04;;;;;;;;;;;;;;;7.02;100.00;94809.56;1026609;28;19914;-71
2022/04/25 00:45:34;;;;;;;;;;;;;;;7.02;100.00;94809.56;1022420;28;19922;-70
2022/04/25 00:46:04;;;;;;;;;;;;;;;7.04;100.00;94797.06;1018763;29;20439;-71
2022/04/25 00:46:34;;;;;;;;;;;;;;;7.04;100.00;94804.06;1022641;28;19923;-70
2022/04/25 00:47:07;;;;;;;;;;;;;;;7.05;100.00;94801.22;1018250;29;19931;-71
2022/04/25 00:47:38;;;;;;;;;;;;;;;7.06;100.00;94796.78;1023488;28;19918;-71
2022/04/25 00:48:08;;;;;;;;;;;;;;;7.06;100.00;94796.78;1029459;28;19925;-70
2022/04/25 00:48:39;;;;;;;;;;;;;;;7.06;100.00;94802.78;1031191;28;19925;-71
2022/04/25 00:49:09;;;;;;;;;;;;;;;7.05;100.00;94801.22;1026844;28;20338;-71
2022/04/25 00:49:39;;;;;;;;;;;;;;;7.05;100.00;94803.06;1020116;28;19922;-70
2022/04/25 00:50:13;;;;;;;;;;;;;;;7.06;100.00;94796.78;1026985;28;19922;-70
2022/04/25 00:50:45;;;;;;;;;;;;;;;7.05;100.00;94800.44;1019785;29;19919;-72
2022/04/25 00:51:15;;;;;;;;;;;;;;;7.04;100.00;94804.88;1023391;28;19957;-71
2022/04/25 00:51:47;;;;;;;;;;;;;;;7.04;100.00;94801.47;1023127;29;19980;-70
2022/04/25 00:52:17;;;;;;;;;;;;;;;7.06;100.00;94802.00;1024250;28;19929;-70
2022/04/25 00:52:47;;;;;;;;;;;;;;;7.04;100.00;94804.88;1022786;28;19952;-69
2022/04/25 00:53:17;;;;;;;;;;;;;;;7.06;100.00;94802.00;1022797;28;20307;-71
2022/04/25 00:53:48;;;;;;;;;;;;;;;7.05;100.00;94800.44;1023149;29;19929;-70
2022/04/25 00:54:19;;;;;;;;;;;;;;;7.05;100.00;94803.06;1023221;28;19926;-70
2022/04/25 00:54:49;;;;;;;;;;;;;;;7.07;100.00;94806.16;1027073;28;19918;-71
2022/04/25 00:55:20;;;;;;;;;;;;;;;7.05;100.00;94795.22;1022933;29;20547;-71
2022/04/25 00:55:50;;;;;;;;;;;;;;;7.04;100.00;94801.47;1023025;29;20380;-71
2022/04/25 00:56:23;;;;;;;;;;;;;;;7.05;100.00;94800.44;1015275;29;20018;-70
2022/04/25 00:56:54;;;;;;;;;;;;;;;7.05;100.00;94805.66;1014885;29;19923;-70
2022/04/25 00:57:25;;;;;;;;;;;;;;;7.04;100.00;94793.66;1014529;29;19923;-70
2022/04/25 00:57:56;;;;;;;;;;;;;;;7.05;100.00;94801.22;1018409;29;20455;-71
2022/04/25 00:58:27;;;;;;;;;;;;;;;7.07;100.00;94804.34;1018875;29;19922;-71
2022/04/25 00:58:57;;;;;;;;;;;;;;;7.04;100.00;94794.44;1018228;29;19926;-71
2022/04/25 00:59:27;;;;;;;;;;;;;;;7.07;100.00;94799.13;1019119;29;19945;-69
2022/04/25 00:59:58;;;;;;;;;;;;;;;7.05;100.00;94795.22;1017394;29;19919;-71
2022/04/25 01:00:28;;;;;;;;;;;;;;;7.05;100.00;94795.22;1019266;29;20060;-71
2022/04/25 01:00:58;;;;;;;;;;;;;;;7.06;100.00;94802.00;1023077;28;19927;-71
2022/04/25 01:01:29;;;;;;;;;;;;;;;7.06;100.00;94797.56;1026618;28;19918;-70
2022/04/25 01:01:59;;;;;;;;;;;;;;;7.07;100.00;94793.13;1027219;28;19921;-71
2022/04/25 01:02:32;;;;;;;;;;;;;;;7.08;100.00;94797.31;1030951;28;20210;-70
2022/04/25 01:03:03;;;;;;;;;;;;;;;7.08;100.00;94800.69;1031127;28;20465;-71
2022/04/25 01:03:33;;;;;;;;;;;;;;;7.07;100.00;94800.94;1033682;28;19918;-71
2022/04/25 01:04:04;;;;;;;;;;;;;;;7.05;100.00;94797.84;1031096;28;19989;-71
2022/04/25 01:04:34;;;;;;;;;;;;;;;7.04;100.00;94794.44;1027101;28;20057;-70
2022/04/25 01:05:05;;;;;;;;;;;;;;;7.05;100.00;94795.22;1027037;28;20363;-70
2022/04/25 01:05:35;;;;;;;;;;;;;;;7.06;100.00;94796.78;1030787;28;19928;-70
2022/04/25 01:06:06;;;;;;;;;;;;;;;7.07;100.00;94793.13;1031338;28;19916;-71
2022/04/25 01:06:36;;;;;;;;;;;;;;;7.08;100.00;94795.47;1018981;28;20451;-70
2022/04/25 01:07:06;;;;;;;;;;;;;;;7.08;100.00;94794.72;1018530;29;20494;-70
2022/04/25 01:07:37;;;;;;;;;;;;;;;7.07;100.00;94790.50;1018940;29;19919;-71
2022/04/25 01:08:08;;;;;;;;;;;;;;;7.07;100.00;94793.13;1019194;28;19919;-69
2022/04/25 01:08:38;;;;;;;;;;;;;;;7.06;100.00;94794.19;1024006;28;19929;-70
2022/04/25 01:09:08;;;;;;;;;;;;;;;7.06;100.00;94794.19;1022807;28;20444;-70
2022/04/25 01:09:39;;;;;;;;;;;;;;;7.05;100.00;94796.00;1023016;29;20382;-71
2022/04/25 01:10:09;;;;;;;;;;;;;;;7.05;100.00;94795.22;1023131;28;19914;-70
2022/04/25 01:10:40;;;;;;;;;;;;;;;7.04;100.00;94791.03;1025802;28;20332;-71
2022/04/25 01:11:10;;;;;;;;;;;;;;;7.04;100.00;94791.03;1023034;29;19929;-70
2022/04/25 01:11:41;;;;;;;;;;;;;;;7.06;100.00;94796.78;1023016;28;19925;-71
2022/04/25 01:12:12;;;;;;;;;;;;;;;7.05;100.00;94792.63;1018768;28;19930;-70
2022/04/25 01:12:42;;;;;;;;;;;;;;;7.06;100.00;94792.34;1027349;28;19922;-71
2022/04/25 01:13:13;;;;;;;;;;;;;;;7.08;100.00;94798.09;1030996;28;20100;-70
2022/04/25 01:13:44;;;;;;;;;;;;;;;7.08;100.00;94794.72;1030511;28;20434;-70
2022/04/25 01:14:17;;;;;;;;;;;;;;;7.05;100.00;94793.41;1023563;28;19963;-70
2022/04/25 01:15:00;;;;;;;;;;;;;;;7.06;100.00;94796.78;1023057;29;20415;-71
2022/04/25 01:15:31;;;;;;;;;;;;;;;7.06;100.00;94789.72;1018993;29;20332;-71
2022/04/25 01:16:04;;;;;;;;;;;;;;;7.06;100.00;94791.56;1023055;28;19930;-70
2022/04/25 01:16:34;;;;;;;;;;;;;;;7.08;100.00;94792.09;1027046;28;19914;-70
2022/04/25 01:17:05;;;;;;;;;;;;;;;7.08;100.00;94794.72;1022147;29;20297;-70
2022/04/25 01:17:35;;;;;;;;;;;;;;;7.05;100.00;94790.78;1025513;28;19921;-70
2022/04/25 01:18:05;;;;;;;;;;;;;;;7.08;100.00;94794.72;1027113;28;20504;-70
2022/04/25 01:18:36;;;;;;;;;;;;;;;7.07;100.00;94793.91;1026937;28;19914;-71
2022/04/25 01:19:06;;;;;;;;;;;;;;;7.08;100.00;94792.88;1030816;28;19926;-71
2022/04/25 01:19:36;;;;;;;;;;;;;;;7.07;100.00;94787.91;1031089;28;19922;-71
2022/04/25 01:20:07;;;;;;;;;;;;;;;7.04;100.00;94788.44;1030937;28;19925;-70
2022/04/25 01:20:37;;;;;;;;;;;;;;;7.06;100.00;94775.91;1030850;28;19972;-71
2022/04/25 01:21:09;;;;;;;;;;;;;;;7.05;100.00;94795.22;1031125;28;19918;-70
2022/04/25 01:21:53;;;;;;;;;;;;;;;7.08;100.00;94794.72;1031038;28;20124;-71
2022/04/25 01:22:40;;;;;;;;;;;;;;;7.05;100.00;94796.00;1028808;28;20045;-70
2022/04/25 01:27:45;;;;;;;;;;;;;;;7.05;100.00;94795.22;1032089;28;19929;-71
2022/04/25 01:28:15;;;;;;;;;;;;;;;7.05;100.00;94797.84;1030520;28;19921;-71
2022/04/25 01:28:45;;;;;;;;;;;;;;;7.07;100.00;94808.78;1030601;28;19922;-71
2022/04/25 01:29:16;;;;;;;;;;;;;;;7.05;100.00;94796.00;1027540;28;20348;-70
2022/04/25 01:29:51;;;;;;;;;;;;;;;7.05;100.00;94798.63;1030665;28;19974;-72
2022/04/25 01:30:21;;;;;;;;;;;;;;;7.06;100.00;94794.94;1030903;28;19920;-71
2022/04/25 01:30:51;;;;;;;;;;;;;;;7.05;100.00;94790.78;1022860;28;19937;-70
2022/04/25 01:31:22;;;;;;;;;;;;;;;7.06;100.00;94796.78;1026599;28;19929;-71
2022/04/25 01:31:52;;;;;;;;;;;;;;;7.06;100.00;94791.56;1022851;29;19915;-71
2022/04/25 01:32:22;;;;;;;;;;;;;;;7.07;100.00;94793.91;1022676;29;19915;-70
2022/04/25 01:32:53;;;;;;;;;;;;;;;7.08;100.00;94794.72;1030336;28;20296;-71
2022/04/25 01:33:26;;;;;;;;;;;;;;;7.09;100.00;94801.47;1026887;28;20310;-71
2022/04/25 01:33:56;;;;;;;;;;;;;;;7.09;100.00;94796.25;1015096;29;20335;-71
2022/04/25 01:34:27;;;;;;;;;;;;;;;7.08;100.00;94802.53;1015168;29;19919;-70
2022/04/25 01:34:57;;;;;;;;;;;;;;;7.08;100.00;94794.72;1015399;29;19917;-71
2022/04/25 01:35:27;;;;;;;;;;;;;;;7.08;100.00;94795.47;1019025;29;19919;-71
2022/04/25 01:35:58;;;;;;;;;;;;;;;7.10;100.00;94797.81;1027158;28;19943;-70
2022/04/25 01:36:28;;;;;;;;;;;;;;;7.08;100.00;94792.88;1027460;28;19914;-70
2022/04/25 01:36:58;;;;;;;;;;;;;;;7.08;100.00;94797.31;1020374;29;20749;-70
2022/04/25 01:37:29;;;;;;;;;;;;;;;7.06;100.00;94796.78;1026974;28;20004;-71
2022/04/25 01:38:02;;;;;;;;;;;;;;;7.08;100.00;94799.91;1026794;28;20203;-71
2022/04/25 01:38:33;;;;;;;;;;;;;;;7.09;100.00;94799.66;1022411;28;20388;-70
2022/04/25 01:39:03;;;;;;;;;;;;;;;7.08;100.00;94794.72;1025965;28;19914;-71
2022/04/25 01:40:00;;;;;;;;;;;;;;;7.08;100.00;94794.72;1028500;28;19914;-71
2022/04/25 01:40:30;;;;;;;;;;;;;;;7.09;100.00;94798.88;1032283;28;20485;-71
2022/04/25 01:41:01;;;;;;;;;;;;;;;7.09;100.00;94804.09;1030796;28;19956;-70
2022/04/25 01:41:31;;;;;;;;;;;;;;;7.08;100.00;94795.47;1030853;28;19922;-71
2022/04/25 01:42:02;;;;;;;;;;;;;;;7.08;100.00;94799.91;1026904;28;20016;-71
2022/04/25 01:42:32;;;;;;;;;;;;;;;7.07;100.00;94796.50;1018916;29;19919;-72
2022/04/25 01:43:02;;;;;;;;;;;;;;;7.09;100.00;94798.88;1022683;28;20384;-71
2022/04/25 01:43:36;;;;;;;;;;;;;;;7.08;100.00;94797.31;1022863;28;20343;-70
2022/04/25 01:44:08;;;;;;;;;;;;;;;7.11;100.00;94798.59;1027517;28;19941;-70
2022/04/25 01:44:39;;;;;;;;;;;;;;;7.11;100.00;94803.81;1031058;28;19976;-71
2022/04/25 01:45:10;;;;;;;;;;;;;;;7.08;100.00;94810.34;1031097;28;20286;-70
2022/04/25 01:45:40;;;;;;;;;;;;;;;7.08;100.00;94797.31;1031124;28;19922;-70
2022/04/25 01:46:11;;;;;;;;;;;;;;;7.08;100.00;94792.09;1030782;28;19953;-70
2022/04/25 01:46:41;;;;;;;;;;;;;;;7.08;100.00;94794.72;1026651;28;19921;-70
2022/04/25 01:47:11;;;;;;;;;;;;;;;7.09;100.00;94798.88;1026596;28;20381;-71
2022/04/25 01:47:42;;;;;;;;;;;;;;;7.09;100.00;94793.66;1026839;28;19914;-71
2022/04/25 01:48:12;;;;;;;;;;;;;;;7.09;100.00;94796.25;1026748;28;20405;-70
2022/04/25 01:48:42;;;;;;;;;;;;;;;7.08;100.00;94794.72;1030849;28;19969;-71
2022/04/25 01:49:12;;;;;;;;;;;;;;;7.08;100.00;94797.31;1030795;28;19987;-71
2022/04/25 01:49:43;;;;;;;;;;;;;;;7.08;100.00;94799.91;1029327;28;19922;-71
2022/04/25 01:50:13;;;;;;;;;;;;;;;7.06;100.00;94797.56;1026730;28;19929;-71
2022/04/25 01:50:43;;;;;;;;;;;;;;;7.06;100.00;94796.78;1026974;28;19918;-71
2022/04/25 01:51:14;;;;;;;;;;;;;;;7.05;100.00;94798.63;1022863;29;20414;-71
2022/04/25 01:51:44;;;;;;;;;;;;;;;7.04;100.00;94798.88;1022719;28;19926;-72
2022/04/25 01:52:16;;;;;;;;;;;;;;;7.05;100.00;94796.00;1022951;29;19918;-71
2022/04/25 01:52:46;;;;;;;;;;;;;;;7.04;100.00;94797.06;1022960;28;19938;-70
2022/04/25 01:53:16;;;;;;;;;;;;;;;7.05;100.00;94795.22;1025471;28;19926;-71
2022/04/25 01:53:49;;;;;;;;;;;;;;;7.04;100.00;94799.66;1022888;29;19918;-70
2022/04/25 01:54:24;;;;;;;;;;;;;;;7.04;100.00;94797.06;1019271;29;19922;-71
2022/04/25 01:54:55;;;;;;;;;;;;;;;7.05;100.00;94796.00;1020593;29;20013;-71
2022/04/25 01:55:25;;;;;;;;;;;;;;;7.05;100.00;94797.84;1019463;29;20340;-70
2022/04/25 01:55:55;;;;;;;;;;;;;;;7.05;100.00;94795.22;1018994;29;19923;-71
2022/04/25 01:56:26;;;;;;;;;;;;;;;7.05;100.00;94795.22;1020028;29;20325;-71
2022/04/25 01:56:56;;;;;;;;;;;;;;;7.03;100.00;94792.88;1019017;29;20082;-71
2022/04/25 01:57:29;;;;;;;;;;;;;;;7.05;100.00;94800.44;1019390;29;19918;-71
2022/04/25 01:57:59;;;;;;;;;;;;;;;7.05;100.00;94795.22;1023848;28;20375;-71
2022/04/25 01:58:30;;;;;;;;;;;;;;;7.04;100.00;94797.06;1027874;28;19918;-70
2022/04/25 01:59:00;;;;;;;;;;;;;;;7.06;100.00;94791.56;1031827;28;20403;-71
2022/04/25 01:59:31;;;;;;;;;;;;;;;7.04;100.00;94799.66;1031663;28;19953;-71
2022/04/25 02:00:01;;;;;;;;;;;;;;;7.05;100.00;94792.63;1029714;28;19918;-71
2022/04/25 02:00:33;;;;;;;;;;;;;;;7.05;100.00;94797.84;1031827;28;20388;-71
2022/04/25 02:01:05;;;;;;;;;;;;;;;7.05;100.00;94795.22;1027656;28;19930;-71
2022/04/25 02:01:35;;;;;;;;;;;;;;;7.06;100.00;94796.78;1027954;28;19922;-71
2022/04/25 02:02:06;;;;;;;;;;;;;;;7.03;100.00;94798.09;1027802;28;20411;-71
2022/04/25 02:02:36;;;;;;;;;;;;;;;7.05;100.00;94800.44;1023684;29;20007;-71
2022/04/25 02:03:06;;;;;;;;;;;;;;;7.05;100.00;94801.22;1023758;29;20312;-70
2022/04/25 02:03:37;;;;;;;;;;;;;;;7.06;100.00;94802.00;1023342;28;19924;-71
2022/04/25 02:04:07;;;;;;;;;;;;;;;7.08;100.00;94799.91;1023490;28;19926;-70
2022/04/25 02:04:38;;;;;;;;;;;;;;;7.08;100.00;94800.69;1023765;28;19926;-71
2022/04/25 02:05:09;;;;;;;;;;;;;;;7.08;100.00;94799.91;1023593;28;19922;-71
2022/04/25 02:05:39;;;;;;;;;;;;;;;7.08;100.00;94798.09;1027693;28;19918;-71
2022/04/25 02:06:10;;;;;;;;;;;;;;;7.09;100.00;94796.25;1023757;28;20360;-71
2022/04/25 02:06:40;;;;;;;;;;;;;;;7.08;100.00;94794.72;1028148;28;19925;-70
2022/04/25 02:07:11;;;;;;;;;;;;;;;7.09;100.00;94797.03;1027418;28;20354;-71
2022/04/25 02:07:41;;;;;;;;;;;;;;;7.08;100.00;94797.31;1023929;28;19957;-70
2022/04/25 02:08:11;;;;;;;;;;;;;;;7.07;100.00;94796.50;1027383;28;19966;-70
2022/04/25 02:08:42;;;;;;;;;;;;;;;7.09;100.00;94801.47;1023866;28;19928;-70
2022/04/25 02:09:13;;;;;;;;;;;;;;;7.08;100.00;94803.31;1019741;29;20282;-70
2022/04/25 02:09:43;;;;;;;;;;;;;;;7.08;100.00;94799.91;1019764;29;20005;-71
2022/04/25 02:10:14;;;;;;;;;;;;;;;7.09;100.00;94798.88;1019541;29;19922;-71
2022/04/25 02:11:19;;;;;;;;;;;;;;;7.09;100.00;94802.25;1019999;28;20317;-71
2022/04/25 02:11:35;;;;;;;;;;;;;;;7.11;100.00;94809.03;1023442;29;19962;-71
2022/04/25 02:12:05;;;;;;;;;;;;;;;7.09;100.00;94804.88;1027048;28;19906;-71
2022/04/25 02:12:36;;;;;;;;;;;;;;;7.12;100.00;94800.94;1023484;28;19918;-71
2022/04/25 02:13:06;;;;;;;;;;;;;;;7.12;100.00;94805.41;1023671;29;20333;-72
2022/04/25 02:13:36;;;;;;;;;;;;;;;7.12;100.00;94806.16;1023809;28;19957;-71
2022/04/25 02:14:06;;;;;;;;;;;;;;;7.11;100.00;94798.59;1021839;28;19945;-71
2022/04/25 02:14:38;;;;;;;;;;;;;;;7.09;100.00;94806.69;1023536;29;19918;-71
2022/04/25 02:15:12;;;;;;;;;;;;;;;7.09;100.00;94806.69;1019634;29;19926;-70
2022/04/25 02:15:44;;;;;;;;;;;;;;;7.11;100.00;94803.81;1016955;29;20020;-70
2022/04/25 02:16:15;;;;;;;;;;;;;;;7.10;100.00;94803.03;1024451;28;19922;-71
2022/04/25 02:16:46;;;;;;;;;;;;;;;7.10;100.00;94803.03;1024160;28;19922;-71
2022/04/25 02:17:16;;;;;;;;;;;;;;;7.10;100.00;94803.03;1024193;28;19978;-71
2022/04/25 02:17:47;;;;;;;;;;;;;;;7.09;100.00;94806.69;1027847;28;20009;-71
2022/04/25 02:18:19;;;;;;;;;;;;;;;7.08;100.00;94803.31;1028086;28;19922;-71
2022/04/25 02:18:49;;;;;;;;;;;;;;;7.08;100.00;94803.31;1027753;28;19918;-71
2022/04/25 02:19:20;;;;;;;;;;;;;;;7.12;100.00;94800.94;1023555;28;19914;-70
2022/04/25 02:19:50;;;;;;;;;;;;;;;7.12;100.00;94803.56;1023814;29;19922;-70
2022/04/25 02:20:20;;;;;;;;;;;;;;;7.10;100.00;94805.63;1019733;29;19930;-70
2022/04/25 02:20:51;;;;;;;;;;;;;;;7.09;100.00;94804.88;1019723;28;19919;-71
2022/04/25 02:21:21;;;;;;;;;;;;;;;7.14;100.00;94804.06;1027735;28;19996;-71
2022/04/25 02:21:52;;;;;;;;;;;;;;;7.10;100.00;94808.25;1023705;29;19913;-71
2022/04/25 02:22:24;;;;;;;;;;;;;;;7.10;100.00;94803.03;1024015;28;20385;-71
2022/04/25 02:22:54;;;;;;;;;;;;;;;7.11;100.00;94809.03;1027792;28;19918;-71
2022/04/25 02:23:25;;;;;;;;;;;;;;;7.09;100.00;94797.03;1027972;28;19910;-71
2022/04/25 02:23:56;;;;;;;;;;;;;;;7.08;100.00;94803.31;1031448;28;19913;-71
2022/04/25 02:24:26;;;;;;;;;;;;;;;7.06;100.00;94800.16;1027307;28;19948;-72
2022/04/25 02:24:57;;;;;;;;;;;;;;;7.07;100.00;94804.34;1027930;28;19910;-70
2022/04/25 02:25:28;;;;;;;;;;;;;;;7.06;100.00;94813.22;1031792;28;19917;-71
2022/04/25 02:25:58;;;;;;;;;;;;;;;7.06;100.00;94799.38;1027448;28;19915;-71
2022/04/25 02:26:28;;;;;;;;;;;;;;;7.06;100.00;94802.00;1023504;29;20274;-70
2022/04/25 02:26:59;;;;;;;;;;;;;;;7.06;100.00;94807.22;1014923;29;19919;-71
2022/04/25 02:27:29;;;;;;;;;;;;;;;7.07;100.00;94806.16;1015459;29;19915;-72
2022/04/25 02:27:59;;;;;;;;;;;;;;;7.09;100.00;94804.09;1015820;29;19915;-71
2022/04/25 02:28:29;;;;;;;;;;;;;;;7.07;100.00;94804.34;1015617;29;19915;-69
2022/04/25 02:29:00;;;;;;;;;;;;;;;7.13;100.00;94806.94;1019800;29;20292;-69
2022/04/25 02:29:31;;;;;;;;;;;;;;;7.09;100.00;94806.69;1023451;28;20203;-69
2022/04/25 02:30:04;;;;;;;;;;;;;;;7.08;100.00;94799.91;1023644;28;19919;-71
2022/04/25 02:30:34;;;;;;;;;;;;;;;7.11;100.00;94809.03;1023760;29;20037;-71
2022/04/25 02:31:05;;;;;;;;;;;;;;;7.08;100.00;94805.91;1021688;28;19914;-71
2022/04/25 02:31:35;;;;;;;;;;;;;;;7.08;100.00;94811.13;1023854;28;19999;-72
2022/04/25 02:32:05;;;;;;;;;;;;;;;7.09;100.00;94810.06;1023398;28;19918;-71
2022/04/25 02:32:36;;;;;;;;;;;;;;;7.08;100.00;94810.34;1019650;28;20039;-71
2022/04/25 02:33:07;;;;;;;;;;;;;;;7.09;100.00;94806.69;1027615;28;19914;-70
2022/04/25 02:33:37;;;;;;;;;;;;;;;7.08;100.00;94815.56;1027698;28;19918;-71
2022/04/25 02:34:07;;;;;;;;;;;;;;;7.07;100.00;94819.22;1031518;28;19988;-71
2022/04/25 02:34:37;;;;;;;;;;;;;;;7.07;100.00;94819.22;1031609;28;19985;-71
2022/04/25 02:35:08;;;;;;;;;;;;;;;7.07;100.00;94811.38;1031405;28;19918;-70
2022/04/25 02:35:38;;;;;;;;;;;;;;;7.06;100.00;94815.03;1031663;28;19909;-71
2022/04/25 02:36:09;;;;;;;;;;;;;;;7.06;100.00;94812.44;1031505;28;19916;-71
2022/04/25 02:36:39;;;;;;;;;;;;;;;7.08;100.00;94811.13;1027500;28;19906;-71
2022/04/25 02:37:09;;;;;;;;;;;;;;;7.08;100.00;94818.97;1023250;29;19915;-71
2022/04/25 02:37:40;;;;;;;;;;;;;;;7.09;100.00;94811.91;1023495;29;20005;-69
2022/04/25 02:38:10;;;;;;;;;;;;;;;7.07;100.00;94819.22;1019619;29;19926;-69
2022/04/25 02:38:40;;;;;;;;;;;;;;;7.06;100.00;94809.81;1023761;28;19961;-71
2022/04/25 02:39:11;;;;;;;;;;;;;;;7.06;100.00;94810.59;1027541;28;19914;-71
2022/04/25 02:39:41;;;;;;;;;;;;;;;7.06;100.00;94812.44;1031344;28;20352;-71
2022/04/25 02:40:11;;;;;;;;;;;;;;;7.07;100.00;94814.00;1031578;28;19910;-71
2022/04/25 02:40:42;;;;;;;;;;;;;;;7.08;100.00;94815.56;1031429;28;20326;-70
2022/04/25 02:41:12;;;;;;;;;;;;;;;7.05;100.00;94821.31;1027428;28;20431;-70
2022/04/25 02:41:43;;;;;;;;;;;;;;;7.05;100.00;94814.25;1023509;29;19923;-71
2022/04/25 02:42:13;;;;;;;;;;;;;;;7.05;100.00;94816.09;1019544;29;19926;-72
2022/04/25 02:42:43;;;;;;;;;;;;;;;7.05;100.00;94822.09;1023934;28;19926;-72
2022/04/25 02:43:14;;;;;;;;;;;;;;;7.06;100.00;94822.88;1027377;28;19945;-70
2022/04/25 02:43:44;;;;;;;;;;;;;;;7.05;100.00;94821.31;1031375;28;20410;-72
2022/04/25 02:44:14;;;;;;;;;;;;;;;7.05;100.00;94821.31;1032108;28;19922;-71
2022/04/25 02:44:45;;;;;;;;;;;;;;;7.05;100.00;94823.91;1031790;28;19952;-71
2022/04/25 02:45:15;;;;;;;;;;;;;;;7.07;100.00;94821.81;1031820;28;19922;-71
2022/04/25 02:45:45;;;;;;;;;;;;;;;7.05;100.00;94823.91;1031598;28;19961;-71